createdAt,value
2023-09-20T00:00:12.737Z,99890.22
2023-09-20T00:02:46.476Z,99876.91
2023-09-20T00:05:16.554Z,99879.06
2023-09-20T00:07:47.714Z,99864.78
2023-09-20T00:10:16.693Z,99862.50
2023-09-20T00:12:45.551Z,99868.09
2023-09-20T00:15:14.245Z,99875.00
2023-09-20T00:17:42.779Z,99868.28
2023-09-20T00:20:14.214Z,99862.63
2023-09-20T00:22:47.483Z,99861.41
2023-09-20T00:25:17.197Z,99859.09
2023-09-20T00:27:47.476Z,99851.03
2023-09-20T00:30:19.259Z,99853.09
2023-09-20T00:32:48.439Z,99843.53
2023-09-20T00:35:18.900Z,99847.56
2023-09-20T00:37:52.247Z,99843.53
2023-09-20T00:40:22.923Z,99816.97
2023-09-20T00:42:52.864Z,99804.94
2023-09-20T00:45:22.646Z,99801.03
2023-09-20T00:47:57.254Z,99814.63
2023-09-20T00:50:29.660Z,99824.19
2023-09-20T00:53:00.888Z,99829.69
2023-09-20T00:55:31.688Z,99803.84
2023-09-20T00:58:05.412Z,99797.53
2023-09-20T01:00:35.258Z,99798.38
2023-09-20T01:03:04.538Z,99800.16
2023-09-20T01:05:36.072Z,99806.22
2023-09-20T01:08:07.463Z,99805.03
2023-09-20T01:10:38.280Z,99808.00
2023-09-20T01:13:10.081Z,99800.06
2023-09-20T01:15:39.378Z,99793.94
2023-09-20T01:18:09.738Z,99796.59
2023-09-20T01:20:41.443Z,99794.38
2023-09-20T01:23:12.048Z,99782.78
2023-09-20T01:25:44.414Z,99783.28
2023-09-20T01:28:14.155Z,99774.44
2023-09-20T01:30:44.050Z,99769.78
2023-09-20T01:33:14.702Z,99767.88
2023-09-20T01:35:46.694Z,99760.06
2023-09-20T01:38:16.661Z,99756.44
2023-09-20T01:40:45.128Z,99751.59
2023-09-20T01:43:15.267Z,99756.81
2023-09-20T01:45:44.934Z,99742.88
2023-09-20T01:48:14.143Z,99726.09
2023-09-20T01:50:45.452Z,99737.50
2023-09-20T01:53:16.209Z,99730.47
2023-09-20T01:55:47.513Z,99721.09
2023-09-20T01:58:18.275Z,99715.25
2023-09-20T02:00:51.836Z,99708.81
2023-09-20T02:03:21.497Z,99720.59
2023-09-20T02:05:51.425Z,99706.91
2023-09-20T02:08:20.902Z,99701.91
2023-09-20T02:10:50.901Z,99700.97
2023-09-20T02:13:20.370Z,99684.66
2023-09-20T02:15:49.246Z,99688.59
2023-09-20T02:18:17.831Z,99683.47
2023-09-20T02:20:47.633Z,99686.44
2023-09-20T02:26:40.881Z,99664.88
2023-09-20T02:32:20.165Z,99642.25
2023-09-20T02:35:50.137Z,99640.22
2023-09-20T02:39:01.317Z,99638.56
2023-09-20T02:42:05.732Z,99655.25
2023-09-20T02:51:35.079Z,99635.31
2023-09-20T03:08:03.448Z,99627.59
2023-09-20T03:23:21.940Z,99592.22
2023-09-20T03:27:28.972Z,99595.94
2023-09-20T03:53:42.418Z,99565.19
2023-09-20T03:55:10.398Z,99530.53
2023-09-20T04:02:32.038Z,99512.53
2023-09-20T04:17:28.799Z,99500.50
2023-09-20T04:24:25.236Z,99500.97
2023-09-20T04:34:41.288Z,99476.69
2023-09-20T04:38:10.353Z,99488.84
2023-09-20T04:38:21.998Z,99474.75
2023-09-20T04:44:34.098Z,99454.59
2023-09-20T04:47:18.422Z,99442.38
2023-09-20T04:50:03.716Z,99451.91
2023-09-20T04:52:46.138Z,99455.72
2023-09-20T06:22:32.940Z,99401.63
2023-09-20T06:25:02.723Z,99407.34
2023-09-20T06:27:31.944Z,99403.50
2023-09-20T06:30:00.320Z,99404.72
2023-09-20T06:32:31.684Z,99401.59
2023-09-20T06:35:00.959Z,99387.75
2023-09-20T06:37:29.291Z,99381.22
2023-09-20T06:40:01.045Z,99384.25
2023-09-20T06:42:31.295Z,99370.72
2023-09-20T06:44:59.889Z,99367.97
2023-09-20T06:47:28.226Z,99366.75
2023-09-20T06:49:58.584Z,99355.94
2023-09-20T06:52:27.391Z,99359.41
2023-09-20T06:54:55.648Z,99385.63
2023-09-20T06:57:26.154Z,99357.47
2023-09-20T06:59:55.646Z,99363.91
2023-09-20T07:02:25.761Z,99365.06
2023-09-20T07:04:55.767Z,99361.03
2023-09-20T07:07:26.422Z,99349.09
2023-09-20T07:09:54.632Z,99361.03
2023-09-20T07:12:25.574Z,99351.31
2023-09-20T07:14:55.393Z,99355.47
2023-09-20T07:17:23.682Z,99348.81
2023-09-20T07:19:53.791Z,99347.34
2023-09-20T07:22:23.284Z,99327.84
2023-09-20T07:24:55.953Z,99327.25
2023-09-20T07:27:25.832Z,99322.66
2023-09-20T07:29:54.151Z,99322.69
2023-09-20T07:32:22.662Z,99316.13
2023-09-20T07:34:59.076Z,99320.00
2023-09-20T07:37:27.593Z,99320.53
2023-09-20T07:39:55.841Z,99317.53
2023-09-20T07:42:25.636Z,99305.38
2023-09-20T07:44:53.951Z,99297.31
2023-09-20T07:47:22.636Z,99305.59
2023-09-20T07:49:51.574Z,99299.50
2023-09-20T07:52:19.900Z,99301.03
2023-09-20T07:54:48.770Z,99301.38
2023-09-20T07:57:17.876Z,99306.59
2023-09-20T07:59:47.639Z,99298.44
2023-09-20T08:02:19.267Z,99290.34
2023-09-20T08:04:47.941Z,99296.34
2023-09-20T08:07:16.298Z,99288.47
2023-09-20T08:09:46.032Z,99284.22
2023-09-20T08:12:14.415Z,99290.31
2023-09-20T08:14:42.789Z,99283.66
2023-09-20T08:17:29.964Z,99275.13
2023-09-20T08:19:59.567Z,99289.34
2023-09-20T08:22:41.751Z,99279.78
2023-09-20T08:25:28.174Z,99288.56
2023-09-20T08:28:13.661Z,99290.00
2023-09-20T08:30:59.738Z,99292.31
2023-09-20T08:33:47.989Z,99290.94
2023-09-20T08:36:33.948Z,99288.25
2023-09-20T08:39:32.399Z,99283.78
2023-09-20T08:42:19.728Z,99289.72
2023-09-20T08:45:12.770Z,99277.81
2023-09-20T08:48:00.449Z,99275.91
2023-09-20T08:50:52.700Z,99273.56
2023-09-20T08:53:38.741Z,99270.41
2023-09-20T08:56:24.743Z,99279.66
2023-09-20T08:59:11.028Z,99278.66
2023-09-20T09:01:46.081Z,99267.31
2023-09-20T09:04:19.957Z,99274.06
2023-09-20T09:06:49.988Z,99283.63
2023-09-20T09:09:18.440Z,99275.78
2023-09-20T09:11:47.945Z,99274.53
2023-09-20T09:14:16.308Z,99273.28
2023-09-20T09:16:44.766Z,99259.59
2023-09-20T09:19:13.163Z,99269.63
2023-09-20T09:21:41.702Z,99257.53
2023-09-20T09:24:12.697Z,99267.84
2023-09-20T09:26:41.461Z,99260.69
2023-09-20T09:29:10.976Z,99261.59
2023-09-20T09:31:39.691Z,99258.97
2023-09-20T09:34:09.392Z,99264.41
2023-09-20T09:36:40.138Z,99272.06
2023-09-20T09:39:32.020Z,99249.84
2023-09-20T09:42:04.539Z,99275.22
2023-09-20T09:44:49.902Z,99253.41
2023-09-20T09:47:20.269Z,99249.44
2023-09-20T09:49:50.290Z,99237.16
2023-09-20T09:52:19.396Z,99229.75
2023-09-20T09:54:49.732Z,99230.09
2023-09-20T09:57:19.703Z,99242.69
2023-09-20T09:59:48.550Z,99223.50
2023-09-20T10:02:19.043Z,99214.38
2023-09-20T10:04:52.986Z,99224.31
2023-09-20T10:07:25.044Z,99218.50
2023-09-20T10:09:59.083Z,99222.97
2023-09-20T10:12:28.134Z,99217.94
2023-09-20T10:14:57.475Z,99220.63
2023-09-20T10:17:31.885Z,99197.03
2023-09-20T10:20:00.256Z,99200.72
2023-09-20T10:22:28.574Z,99199.88
2023-09-20T10:25:02.032Z,99191.34
2023-09-20T10:27:31.605Z,99169.00
2023-09-20T10:30:03.954Z,99161.56
2023-09-20T10:32:36.847Z,99160.28
2023-09-20T10:35:22.697Z,99154.28
2023-09-20T10:38:24.303Z,99160.25
2023-09-20T10:41:04.888Z,99137.44
2023-09-20T10:43:53.013Z,99134.00
2023-09-20T10:46:23.930Z,99112.47
2023-09-20T10:48:53.683Z,99131.78
2023-09-20T10:51:50.303Z,99114.66
2023-09-20T10:54:23.900Z,99122.50
2023-09-20T10:57:13.260Z,99126.19
2023-09-20T10:59:45.528Z,99131.25
2023-09-20T11:02:18.216Z,99139.50
2023-09-20T11:04:48.230Z,99142.81
2023-09-20T11:07:16.814Z,99149.06
2023-09-20T11:09:47.590Z,99131.50
2023-09-20T11:12:18.087Z,99115.97
2023-09-20T11:14:49.483Z,99121.94
2023-09-20T11:17:20.231Z,99164.59
2023-09-20T11:19:49.906Z,99130.75
2023-09-20T11:22:19.897Z,99120.00
2023-09-20T11:24:48.136Z,99123.19
2023-09-20T11:27:18.487Z,99117.94
2023-09-20T11:29:46.838Z,99109.00
2023-09-20T11:32:16.638Z,99090.84
2023-09-20T11:34:46.367Z,99096.19
2023-09-20T11:37:20.094Z,99094.81
2023-09-20T11:39:49.011Z,99082.53
2023-09-20T11:42:29.654Z,99071.56
2023-09-20T11:45:11.611Z,99060.09
2023-09-20T11:47:49.858Z,99040.28
2023-09-20T11:50:18.376Z,99062.34
2023-09-20T11:52:48.724Z,99062.19
2023-09-20T11:55:18.023Z,99048.72
2023-09-20T11:57:48.213Z,99046.59
2023-09-20T12:00:19.225Z,99038.19
2023-09-20T12:02:48.885Z,99049.63
2023-09-20T12:05:20.767Z,99050.72
2023-09-20T12:07:58.131Z,99029.41
2023-09-20T12:10:27.840Z,99034.38
2023-09-20T12:12:58.307Z,99040.53
2023-09-20T12:15:27.450Z,99028.69
2023-09-20T12:17:58.256Z,99019.19
2023-09-20T12:20:29.009Z,99030.63
2023-09-20T12:23:02.889Z,99014.50
2023-09-20T12:25:32.607Z,99015.03
2023-09-20T12:28:02.522Z,99022.47
2023-09-20T12:30:31.084Z,99019.16
2023-09-20T12:33:02.129Z,99005.59
2023-09-20T12:35:32.138Z,99015.22
2023-09-20T12:38:02.882Z,99000.38
2023-09-20T12:40:31.236Z,99015.09
2023-09-20T12:43:03.004Z,99005.59
2023-09-20T12:45:31.776Z,99010.00
2023-09-20T12:48:00.170Z,98994.03
2023-09-20T12:50:34.215Z,98996.09
2023-09-20T12:53:02.564Z,98998.03
2023-09-20T12:55:32.310Z,99004.13
2023-09-20T12:58:02.022Z,98973.81
2023-09-20T13:00:45.652Z,98979.03
2023-09-20T13:03:15.484Z,98968.56
2023-09-20T13:05:47.728Z,98969.81
2023-09-20T13:08:19.135Z,98968.28
2023-09-20T13:10:53.806Z,98977.75
2023-09-20T13:13:28.495Z,98970.63
2023-09-20T13:15:57.012Z,98959.59
2023-09-20T13:18:25.604Z,98974.47
2023-09-20T13:20:59.631Z,98958.06
2023-09-20T13:23:28.208Z,98948.41
2023-09-20T13:25:56.743Z,98941.91
2023-09-20T13:28:25.311Z,98935.44
2023-09-20T13:30:55.655Z,98926.19
2023-09-20T13:33:24.566Z,98916.69
2023-09-20T13:35:52.983Z,98927.47
2023-09-20T13:38:22.472Z,98914.75
2023-09-20T13:40:52.047Z,98932.16
2023-09-20T13:43:20.499Z,98908.41
2023-09-20T13:45:49.659Z,98905.94
2023-09-20T13:48:19.845Z,98909.69
2023-09-20T13:50:48.637Z,98900.84
2023-09-20T13:53:17.177Z,98892.28
2023-09-20T13:55:48.263Z,98896.72
2023-09-20T13:58:17.378Z,98884.00
2023-09-20T14:00:45.702Z,98887.06
2023-09-20T14:03:16.477Z,98864.69
2023-09-20T14:05:46.490Z,98881.69
2023-09-20T14:08:14.773Z,98865.41
2023-09-20T14:10:43.120Z,98866.66
2023-09-20T14:13:12.159Z,98866.09
2023-09-20T14:15:41.208Z,98869.28
2023-09-20T14:18:10.111Z,98855.34
2023-09-20T14:20:39.938Z,98859.75
2023-09-20T14:23:10.300Z,98839.50
2023-09-20T14:25:39.266Z,98852.72
2023-09-20T14:28:08.417Z,98842.50
2023-09-20T14:30:39.299Z,98834.53
2023-09-20T14:33:09.857Z,98834.38
2023-09-20T14:35:39.110Z,98849.00
2023-09-20T14:38:08.375Z,98833.28
2023-09-20T14:40:38.888Z,98849.69
2023-09-20T14:43:09.715Z,98845.38
2023-09-20T14:45:38.245Z,98841.66
2023-09-20T14:48:11.939Z,98833.66
2023-09-20T14:50:40.457Z,98849.25
2023-09-20T14:53:10.133Z,98839.06
2023-09-20T14:55:39.838Z,98842.06
2023-09-20T14:58:08.323Z,98844.28
2023-09-20T15:00:36.897Z,98838.06
2023-09-20T15:03:05.826Z,98831.56
2023-09-20T15:05:39.048Z,98829.91
2023-09-20T15:08:09.796Z,98835.69
2023-09-20T15:10:43.872Z,98835.69
2023-09-20T15:13:12.254Z,98843.72
2023-09-20T15:15:40.527Z,98849.09
2023-09-20T15:18:09.659Z,98847.19
2023-09-20T15:20:38.477Z,98855.72
2023-09-20T15:23:07.288Z,98844.69
2023-09-20T15:25:35.925Z,98840.97
2023-09-20T15:28:06.186Z,98846.78
2023-09-20T15:30:38.279Z,98840.44
2023-09-20T15:33:09.924Z,98845.28
2023-09-20T15:35:38.283Z,98844.56
2023-09-20T15:38:09.346Z,98842.09
2023-09-20T15:40:38.102Z,98851.75
2023-09-20T15:43:09.273Z,98859.34
2023-09-20T15:45:37.625Z,98865.81
2023-09-20T15:48:06.514Z,98845.56
2023-09-20T15:50:38.496Z,98840.44
2023-09-20T15:53:07.114Z,98840.31
2023-09-20T15:55:36.659Z,98875.06
2023-09-20T15:58:05.137Z,98873.13
2023-09-20T16:00:34.825Z,98886.38
2023-09-20T16:03:04.604Z,98885.53
2023-09-20T16:05:33.078Z,98886.34
2023-09-20T16:08:01.551Z,98885.63
2023-09-20T16:10:31.023Z,98895.38
2023-09-20T16:12:59.438Z,98893.88
2023-09-20T16:15:27.953Z,98905.28
2023-09-20T16:17:57.674Z,98910.09
2023-09-20T16:20:26.738Z,98891.31
2023-09-20T16:22:56.313Z,98898.84
2023-09-20T16:25:24.714Z,98895.34
2023-09-20T16:27:53.356Z,98897.16
2023-09-20T16:30:22.448Z,98908.75
2023-09-20T16:32:52.304Z,98908.91
2023-09-20T16:35:22.974Z,98901.31
2023-09-20T16:37:52.218Z,98904.63
2023-09-20T16:40:20.884Z,98900.78
2023-09-20T16:42:50.103Z,98900.22
2023-09-20T16:45:18.866Z,98910.03
2023-09-20T16:47:47.489Z,98917.09
2023-09-20T16:50:16.321Z,98911.31
2023-09-20T16:52:47.059Z,98918.88
2023-09-20T16:55:16.917Z,98926.47
2023-09-20T16:57:47.764Z,98925.34
2023-09-20T17:00:16.882Z,98926.19
2023-09-20T17:02:45.233Z,98925.91
2023-09-20T17:05:16.748Z,98917.78
2023-09-20T17:07:48.764Z,98908.84
2023-09-20T17:10:18.113Z,98922.91
2023-09-20T17:12:46.899Z,98925.38
2023-09-20T17:15:17.270Z,98929.94
2023-09-20T17:17:47.849Z,98933.09
2023-09-20T17:20:16.911Z,98936.81
2023-09-20T17:22:46.648Z,98923.00
2023-09-20T17:25:15.575Z,98922.59
2023-09-20T17:27:46.676Z,98936.66
2023-09-20T17:30:18.888Z,98924.78
2023-09-20T17:32:49.500Z,98919.81
2023-09-20T17:35:18.441Z,98929.59
2023-09-20T17:37:48.130Z,98924.22
2023-09-20T17:40:17.832Z,98917.63
2023-09-20T17:42:46.609Z,98917.88
2023-09-20T17:45:16.462Z,98914.28
2023-09-20T17:47:45.737Z,98897.47
2023-09-20T17:50:15.229Z,98899.84
2023-09-20T17:52:43.813Z,98902.47
2023-09-20T17:55:13.760Z,98909.75
2023-09-20T17:57:43.855Z,98907.53
2023-09-20T18:00:15.331Z,98910.81
2023-09-20T18:02:44.043Z,98916.34
2023-09-20T18:05:12.602Z,98926.69
2023-09-20T18:07:40.877Z,98933.97
2023-09-20T18:10:09.552Z,98930.81
2023-09-20T18:12:39.552Z,98931.75
2023-09-20T18:15:09.481Z,98937.00
2023-09-20T18:17:41.550Z,98924.72
2023-09-20T18:20:10.876Z,98931.41
2023-09-20T18:22:40.441Z,98931.34
2023-09-20T18:25:11.096Z,98939.75
2023-09-20T18:27:41.478Z,98942.09
2023-09-20T18:30:11.860Z,98934.94
2023-09-20T18:32:40.317Z,98936.88
2023-09-20T18:35:09.297Z,98942.09
2023-09-20T18:37:37.876Z,98940.44
2023-09-20T18:40:09.532Z,98947.34
2023-09-20T18:42:38.358Z,98938.66
2023-09-20T18:45:10.912Z,98951.59
2023-09-20T18:47:44.192Z,98945.56
2023-09-20T18:50:14.936Z,98939.50
2023-09-20T18:52:44.829Z,98936.88
2023-09-20T18:55:17.162Z,98930.81
2023-09-20T18:57:51.936Z,98936.16
2023-09-20T19:00:23.457Z,98938.09
2023-09-20T19:02:52.406Z,98934.91
2023-09-20T19:05:20.772Z,98940.97
2023-09-20T19:07:51.514Z,98938.19
2023-09-20T19:10:20.294Z,98926.63
2023-09-20T19:12:48.525Z,98910.22
2023-09-20T19:15:17.021Z,98907.28
2023-09-20T19:17:47.928Z,98946.44
2023-09-20T19:20:19.341Z,98960.22
2023-09-20T19:22:48.333Z,98966.28
2023-09-20T19:25:18.855Z,98977.59
2023-09-20T19:27:48.815Z,98991.88
2023-09-20T19:30:19.829Z,98979.75
2023-09-20T19:32:50.173Z,98948.28
2023-09-20T19:35:18.856Z,98932.53
2023-09-20T19:37:47.286Z,98937.19
2023-09-20T19:40:21.067Z,98967.38
2023-09-20T19:42:51.716Z,98989.72
2023-09-20T19:45:20.943Z,98969.47
2023-09-20T19:47:51.755Z,98961.03
2023-09-20T19:50:23.045Z,98976.63
2023-09-20T19:52:54.432Z,98987.34
2023-09-20T19:55:26.127Z,98977.94
2023-09-20T19:57:56.433Z,98965.97
2023-09-20T20:00:29.045Z,98965.28
2023-09-20T20:03:01.671Z,98961.72
2023-09-20T20:05:30.840Z,98963.91
2023-09-20T20:08:04.987Z,98960.94
2023-09-20T20:10:33.648Z,98958.44
2023-09-20T20:13:01.789Z,98961.03
2023-09-20T20:15:31.971Z,98957.47
2023-09-20T20:18:03.425Z,98955.69
2023-09-20T20:20:34.478Z,98962.81
2023-09-20T20:23:06.590Z,98963.66
2023-09-20T20:25:40.067Z,98954.28
2023-09-20T20:28:13.737Z,98971.66
2023-09-20T20:30:42.729Z,98967.25
2023-09-20T20:33:13.164Z,98959.16
2023-09-20T20:35:42.018Z,98969.34
2023-09-20T20:38:11.522Z,98965.75
2023-09-20T20:40:43.535Z,98964.94
2023-09-20T20:43:12.008Z,98960.09
2023-09-20T20:45:40.633Z,98963.53
2023-09-20T20:48:09.388Z,98960.78
2023-09-20T20:50:42.515Z,98951.28
2023-09-20T20:53:16.469Z,98948.94
2023-09-20T20:55:45.203Z,98950.16
2023-09-20T20:58:14.558Z,98945.03
2023-09-20T21:00:51.840Z,98939.13
2023-09-20T21:03:21.471Z,98940.22
2023-09-20T21:05:53.812Z,98932.47
2023-09-20T21:08:22.713Z,98936.31
2023-09-20T21:10:52.369Z,98942.75
2023-09-20T21:13:21.632Z,98938.59
2023-09-20T21:15:49.939Z,98938.50
2023-09-20T21:18:19.137Z,98939.31
2023-09-20T21:20:51.393Z,98947.84
2023-09-20T21:23:21.620Z,98944.41
2023-09-20T21:25:50.854Z,98945.50
2023-09-20T21:28:19.244Z,98940.38
2023-09-20T21:30:49.823Z,98946.03
2023-09-20T21:33:18.312Z,98942.56
2023-09-20T21:35:47.374Z,98946.28
2023-09-20T21:38:15.612Z,98945.72
2023-09-20T21:40:45.497Z,98945.25
2023-09-20T21:43:14.811Z,98936.97
2023-09-20T21:45:43.686Z,98940.78
2023-09-20T21:48:12.255Z,98942.81
2023-09-20T21:50:41.704Z,98934.41
2023-09-20T21:53:12.639Z,98935.59
2023-09-20T21:55:42.506Z,98934.91
2023-09-20T21:58:12.315Z,98942.06
2023-09-20T22:00:42.105Z,98949.91
2023-09-20T22:03:10.545Z,98940.25
2023-09-20T22:05:39.008Z,98942.75
2023-09-20T22:08:10.563Z,98953.91
2023-09-20T22:10:51.774Z,98939.31
2023-09-20T22:13:23.044Z,98941.09
2023-09-20T22:15:53.888Z,98935.16
2023-09-20T22:18:25.871Z,98937.22
2023-09-20T22:21:02.596Z,98937.31
2023-09-20T22:23:31.724Z,98938.41
2023-09-20T22:26:00.001Z,98940.19
2023-09-20T22:28:29.827Z,98929.72
2023-09-20T22:30:58.189Z,98932.50
2023-09-20T22:33:26.750Z,98932.75
2023-09-20T22:36:08.185Z,98929.28
2023-09-20T22:38:42.662Z,98920.88
2023-09-20T22:41:11.258Z,98923.59
2023-09-20T22:43:40.901Z,98923.81
2023-09-20T22:46:09.818Z,98917.91
2023-09-20T22:48:40.368Z,98919.56
2023-09-20T22:51:09.722Z,98917.91
2023-09-20T22:53:39.098Z,98914.56
2023-09-20T22:56:08.217Z,98915.66
2023-09-20T22:58:36.835Z,98906.19
2023-09-20T23:01:07.893Z,98909.00
2023-09-20T23:03:40.414Z,98911.06
2023-09-20T23:06:09.020Z,98918.19
2023-09-20T23:08:37.242Z,98915.56
2023-09-20T23:11:11.035Z,98917.50
2023-09-20T23:13:43.694Z,98912.38
2023-09-20T23:16:23.309Z,98913.34
2023-09-20T23:18:53.427Z,98911.78
2023-09-20T23:21:21.848Z,98906.56
2023-09-20T23:23:50.350Z,98909.19
2023-09-20T23:26:21.378Z,98898.16
2023-09-20T23:28:51.092Z,98907.22
2023-09-20T23:31:21.884Z,98905.56
2023-09-20T23:33:50.671Z,98902.09
2023-09-20T23:36:19.281Z,98901.41
2023-09-20T23:38:50.073Z,98897.97
2023-09-20T23:41:19.728Z,98892.84
2023-09-20T23:43:51.598Z,98898.06
2023-09-20T23:46:23.566Z,98903.53
2023-09-20T23:48:54.144Z,98904.72
2023-09-20T23:51:23.275Z,98908.44
2023-09-20T23:53:53.777Z,98900.00
2023-09-20T23:56:23.800Z,98893.50
2023-09-20T23:58:52.903Z,98898.00
